Terminal Aerodrome Forecast
Issued by NWS

Home | Current Version | Previous Version | Text Only | Print | Product List | Glossary On
Versions: 1 2 3 4 5 6 7 8 9 10 11 12 13 14 15 16 17 18 19 20
000
FTUS43 KDLH 231936 AAA
TAFBRD
TAF AMD
KBRD 231936Z 2320/2418 23008KT 4SM -RA BR VCTS SCT007 SCT050CB
      OVC100
     FM232200 18006KT P6SM -TSRA SCT015 BKN050CB OVC100
     FM240200 18006KT P6SM -SHRA VCTS OVC035CB
     FM240600 26006KT P6SM SCT250
     FM241500 29012KT P6SM SKC=

USA.gov is the U.S. government's official web portal to all federal, state and local government web resources and services.